Accueil
METAR-TAF:

METAR-TAF

Aéroports :

Aéroport international de Sanya Phénix

Sanya, Chine

latitude: 18-18N, longitude: 109-24E, altitude: 27 m

Observation

Le bulletin a été fait il y a 42 minutes, à 06:00 UTC
Vent 6 kt de sud/sud-ouest, variant entre sud/sud-est et ouest/sud-ouest
Température 31°C
Humidité 84%
Pression 1007 hPa
Visibilité 10 km ou plus
Quelques nuages à une hauteur de 1700 ft

METAR: ZJSY 080600Z 20003MPS 150V240 9999 FEW017 31/28 Q1007 NOSIG

Heure: 14:42 (06:42 UTC)

Prévision

Le bulletin a été fait il y a 3 heures et 39 minutes, à 03:03 UTC
Prévision valable du 08 à 06 UTC au 09 à 06 UTC
Vent 8 kt de sud
Visibilité 10 km ou plus
Nuages épars à une hauteur de 2000 ft
Temporairement
du 08 à 06 UTC au 08 à 10 UTC
Nuages épars à une hauteur de 1600 ft
Quelques nuages à une hauteur de 2500 ft, Cumulonimbus.

TAF: ZJSY 080303Z 0806/0906 18004MPS 9999 SCT020 TX33/0806Z TN28/0821Z TEMPO 0806/0810 SCT016 FEW025CB

Observations et prévisions météorologiques de plus de 4000 aéroports (messages METAR et TAF).

Les stations disponibles sont représentées par des disques jaunes et rouges sur la carte.

Passer la souris dessus pour voir le nom de la station.

Cliquer dessus pour voir les observations et prévisions météorologiques.

Pour changer de carte: cliquez sur les boutons verts avec une croix noire pour zoomer, sur le bouton vert avec un tiret pour effectuer un zoom arrière, ou sur les flèches vertes pour les cartes adjacentes.


METAR-TAF: